Wainwright, AK (99782)

5:45 PM AKDT on September 01, 2014 (GMT -0800)
Wainwright | Change Station
CLOSE
Current Station
Airport
Location: Wainwright,
Elevation: 39 ft
Nearby Weather Stations
Active Advisory: High Surf Advisory

Elev 39 ft 70.64 °N, 159.99 °W | Updated 52 minutes ago

Mostly Cloudy
Mostly Cloudy
38 °F
Feels Like 28 °F
N
21
Wind Variable Wind from West
Gusts 29 mph

Today
High -- | Low -- °F
--% Chance of Precip.
Yesterday
High -- | Low -- °F
Precip. -- in
6:50 AM 10:21 PM
Waxing Crescent, 46% visible
Pressure 29.42 in
Visibility 10.0 miles
Clouds Few 2500 ft
Scattered Clouds 3200 ft
Mostly Cloudy 4200 ft
Windchill 28 °F
Dew Point 31 °F
Humidity 76%
Rainfall 0.00 in
Snow Depth Not available.
UV 1 out of 12
Pollen Not available.
Air Quality Not available.
Flu Activity Not available.
METAR PAWI 020053Z AUTO 26018G25KT 10SM FEW025 SCT032 BKN042 03/M01 A2942 RMK AO2 WSHFT 0009 SNB03E12 SLP962 P0000 T00331006 TSNO

More Conditions Fewer Conditions

Pressure 29.42 in
Visibility 10.0 miles
Clouds Few 2500 ft
Scattered Clouds 3200 ft
Mostly Cloudy 4200 ft
Windchill 28 °F
Dew Point 31 °F
Humidity 76%
Rainfall 0.00 in
Snow Depth Not available.
UV 1 out of 12
Pollen Not available.
Air Quality Not available.
Flu Activity Not available.
METAR PAWI 020053Z AUTO 26018G25KT 10SM FEW025 SCT032 BKN042 03/M01 A2942 RMK AO2 WSHFT 0009 SNB03E12 SLP962 P0000 T00331006 TSNO

More Conditions Fewer Conditions

10-Day Weather Forecast

Almanac

Astronomy

Sep. 01, 2014 Rise Set
Actual Time 6:50 AM AKDT 10:21 PM AKDT
Civil Twilight 5:31 AM AKDT 11:38 PM AKDT
Nautical Twilight 3:10 AM AKDT 2:05 AM AKDT
Astronomical Twilight Sun does not rise Sun does not rise
Moon 6:26 PM AKDT (9/1) 9:52 PM AKDT (9/1)
Length of Visible Light 18h 06m
Length of Day
15h 30m
Tomorrow will be 9m 23s shorter.
Waxing Crescent, 46% of the Moon is Illuminated
Today
Waxing Crescent
Sep 2
First Quarter
Sep 8
Full
Sep 15
Last Quarter
Sep 24
New

Today's Extremes

State Highs State Lows

Community

WunderPhotos

Upload Photos

1,749,476 photos uploaded!

Nearby

Snow Depth

Station Depth Elevation
Imnaviat Creek 0 in 3050 ft
Atigun Pass 6 in 4800 ft
Coldfoot 0 in 1040 ft
Gobblers Knob 0 in 2030 ft
Rocky Point 4 in 500 ft

Earthquake Activity

City Distance Mag. Time & Date
No recent earthquake activity has been reported nearby.
Minimum magnitude displayed is 2.5.

Coastal Water Temperatures

Place Temperature
No Stations Reporting

Nearby Weather Stations